Lahajnar, Niko (2026): Master tracks in different resolutions of METEOR cruise M217/2, Walvis Bay - Walvis Bay, 2026-03-07 - 2026-03-11 [dataset]. Institute for Geology, Biogeochemistry, University of Hamburg, PANGAEA, https://doi.pangaea.de/10.1594/PANGAEA.996785 (DOI registration in progress)
Always quote citation above when using data! You can download the citation in several formats below.
Published: 2026-08-21
Abstract:
Raw data acquired by position sensors on board RV METEOR during expedition M217/2 were processed to receive a validated master track which can be used as reference of further expedition data. During M217/2 the motion reference unit Kongsberg SeaTex AS MRU-5 combined with Kongsberg SeaTex AS Seapath 320 and two SAAB R6 DGPS receiver were used as navigation sensors. Data were downloaded from Insightics Marine DSHIP Extraction (https://dship.o2a-data.de) with a resolution of 1 sec.. Processing and evaluation of the data is outlined in the data processing report. Processed data are provided as a master track with 1 sec resolution derived from the position sensors' data selected by priority and a generalized track with a reduced set of the most significant positions of the master track.
Other version:
Lahajnar, Niko (2026): Master track of METEOR cruise M217/2 in 1 sec resolution (zipped, 15 MB) [dataset]. Institute for Geology, Biogeochemistry, University of Hamburg, PANGAEA, https://doi.pangaea.de/10.1594/PANGAEA.996786
Data processing report:
Further details:
Project(s):
AI BaseCamp - Helmholtz DataHub Earth & Environment (AI_BaseCamp)
DAM Marine Data - Research Vessels (DAM_ResearchVessels)
Funding:
Bundesministerium für
Forschung, Technologie und Raumfahrt (BMFTR), grant/award no. 03F1001E: Auf- und Ausbau Dateninfrastruktur und -management für Daten aus dem Betrieb deutscher Forschungsschiffe; Vorhaben: Bathymetrie-, Sedimentecholot-, Seismik- sowie weitere Unterwegs- und Forschungsmissionsdaten
Coverage:
Median Latitude: -22.994759 * Median Longitude: 13.617920 * South-bound Latitude: -23.031619 * West-bound Longitude: 12.317525 * North-bound Latitude: -22.846808 * East-bound Longitude: 14.497880
Date/Time Start: 2026-03-07T09:45:30 * Date/Time End: 2026-03-11T07:59:49
Event(s):
M217/2-track * Latitude Start: -22.954848 * Longitude Start: 14.486068 * Latitude End: -22.903526 * Longitude End: 14.493967 * Date/Time Start: 2026-03-07T09:25:30 * Date/Time End: 2026-03-11T07:59:49 * Campaign: M217/2 * Basis: Meteor (1986) * Method/Device: Underway cruise track measurements (CT) * Comment: Walvis Bay - Walvis Bay
Comment:
This dataset contains the master track in 10 min resolution, for other resolutions please see "Other version" references.
Parameter(s):
License:
Creative Commons Attribution 4.0 International (CC-BY-4.0)
Status:
Curation Level: Enhanced curation (CurationLevelC)
Size:
1134 data points
Data
| 1 Date/Time | 2 Latitude | 3 Longitude | 4 Speed [kn] | 5 Course [deg] |
|---|---|---|---|---|
| 2026-03-07T09:45 | -22.95483 | 14.48608 | 0.000 | 180.0 |
| 2026-03-07T09:55 | -22.95483 | 14.48608 | 0.000 | 90.0 |
| 2026-03-07T10:05 | -22.95483 | 14.48608 | 0.001 | 193.0 |
| 2026-03-07T10:15 | -22.95484 | 14.48608 | 0.000 | 222.8 |
| 2026-03-07T10:25 | -22.95483 | 14.48608 | 0.001 | 317.2 |
| 2026-03-07T10:35 | -22.95483 | 14.48608 | 0.000 | 0.0 |
| 2026-03-07T10:45 | -22.95483 | 14.48607 | 0.001 | 204.8 |
| 2026-03-07T10:55 | -22.95483 | 14.48607 | 0.000 | 0.0 |
| 2026-03-07T11:05 | -22.95483 | 14.48607 | 0.001 | 335.1 |
| 2026-03-07T11:15 | -22.95483 | 14.48607 | 0.000 | 180.0 |
| 2026-03-07T11:25 | -22.95483 | 14.48607 | 0.000 | 0.0 |
| 2026-03-07T11:35 | -22.95483 | 14.48607 | 0.000 | 42.8 |
| 2026-03-07T11:45 | -22.95483 | 14.48607 | 0.000 | 0.0 |
| 2026-03-07T11:55 | -22.95483 | 14.48607 | 0.000 | 0.0 |
| 2026-03-07T12:05 | -22.95483 | 14.48607 | 0.001 | 270.0 |
| 2026-03-07T12:15 | -22.95483 | 14.48607 | 0.000 | 42.8 |
| 2026-03-07T12:25 | -22.95482 | 14.48607 | 0.002 | 10.5 |
| 2026-03-07T12:35 | -22.95483 | 14.48607 | 0.001 | 180.0 |
| 2026-03-07T12:45 | -22.95483 | 14.48607 | 0.000 | 270.0 |
| 2026-03-07T12:55 | -22.95483 | 14.48607 | 0.000 | 90.0 |
| 2026-03-07T13:05 | -22.95483 | 14.48607 | 0.001 | 222.8 |
| 2026-03-07T13:15 | -22.95483 | 14.48607 | 0.000 | 180.0 |
| 2026-03-07T13:25 | -22.95483 | 14.48607 | 0.000 | 270.0 |
| 2026-03-07T13:35 | -22.95483 | 14.48607 | 0.000 | 270.0 |
| 2026-03-07T13:45 | -22.95483 | 14.48607 | 0.001 | 0.0 |
| 2026-03-07T13:55 | -22.95482 | 14.48607 | 0.001 | 0.0 |
| 2026-03-07T14:05 | -22.95482 | 14.48607 | 0.000 | 137.2 |
| 2026-03-07T14:15 | -22.95441 | 14.48727 | 0.426 | 69.5 |
| 2026-03-07T14:25 | -22.94355 | 14.49586 | 4.828 | 36.2 |
| 2026-03-07T14:35 | -22.91523 | 14.49788 | 10.174 | 3.8 |
| 2026-03-07T14:45 | -22.89057 | 14.48198 | 10.303 | 329.2 |
| 2026-03-07T14:55 | -22.86147 | 14.46725 | 11.524 | 334.9 |
| 2026-03-07T15:05 | -22.85613 | 14.43520 | 10.821 | 280.2 |
| 2026-03-07T15:15 | -22.85630 | 14.40118 | 11.305 | 269.7 |
| 2026-03-07T15:25 | -22.87279 | 14.38852 | 7.256 | 215.4 |
| 2026-03-07T15:35 | -22.88646 | 14.38072 | 5.547 | 207.9 |
| 2026-03-07T15:45 | -22.89995 | 14.37315 | 5.453 | 207.5 |
| 2026-03-07T15:55 | -22.91340 | 14.36550 | 5.449 | 207.8 |
| 2026-03-07T16:05 | -22.92676 | 14.35806 | 5.390 | 207.3 |
| 2026-03-07T16:15 | -22.93984 | 14.35060 | 5.305 | 207.8 |
| 2026-03-07T16:25 | -22.95296 | 14.34327 | 5.296 | 207.4 |
| 2026-03-07T16:35 | -22.96592 | 14.33577 | 5.274 | 208.2 |
| 2026-03-07T16:45 | -22.97871 | 14.32856 | 5.172 | 207.6 |
| 2026-03-07T16:55 | -22.99127 | 14.32133 | 5.104 | 208.0 |
| 2026-03-07T17:05 | -23.00044 | 14.31631 | 3.687 | 206.9 |
| 2026-03-07T17:15 | -23.00044 | 14.31629 | 0.005 | 252.8 |
| 2026-03-07T17:25 | -23.00041 | 14.31625 | 0.018 | 308.6 |
| 2026-03-07T17:35 | -23.00040 | 14.31625 | 0.004 | 17.1 |
| 2026-03-07T17:45 | -23.00124 | 14.31582 | 0.334 | 205.8 |
| 2026-03-07T17:55 | -23.00353 | 14.31424 | 0.974 | 212.5 |
| 2026-03-07T18:05 | -23.00583 | 14.31268 | 0.972 | 212.2 |
| 2026-03-07T18:15 | -23.00813 | 14.31114 | 0.971 | 211.9 |
| 2026-03-07T18:25 | -23.01321 | 14.30812 | 2.079 | 208.8 |
| 2026-03-07T18:35 | -23.01097 | 14.28264 | 8.497 | 275.4 |
| 2026-03-07T18:45 | -23.00712 | 14.24870 | 11.349 | 277.0 |
| 2026-03-07T18:55 | -23.00316 | 14.21503 | 11.270 | 277.2 |
| 2026-03-07T19:05 | -22.99914 | 14.21727 | 1.622 | 27.4 |
| 2026-03-07T19:15 | -22.99889 | 14.21750 | 0.118 | 38.9 |
| 2026-03-07T19:25 | -22.99889 | 14.21750 | 0.002 | 70.2 |
| 2026-03-07T19:35 | -23.00034 | 14.21718 | 0.532 | 191.6 |
| 2026-03-07T19:45 | -23.00299 | 14.21667 | 0.967 | 190.1 |
| 2026-03-07T19:55 | -23.00567 | 14.21613 | 0.976 | 190.6 |
| 2026-03-07T20:05 | -23.00833 | 14.21560 | 0.970 | 190.4 |
| 2026-03-07T20:15 | -23.01059 | 14.20967 | 2.129 | 247.6 |
| 2026-03-07T20:25 | -23.00983 | 14.18530 | 8.093 | 271.9 |
| 2026-03-07T20:35 | -23.00816 | 14.15857 | 8.894 | 273.9 |
| 2026-03-07T20:45 | -23.00606 | 14.12792 | 10.203 | 274.2 |
| 2026-03-07T20:55 | -23.00405 | 14.09747 | 10.132 | 274.1 |
| 2026-03-07T21:05 | -23.00213 | 14.06697 | 10.150 | 273.9 |
| 2026-03-07T21:15 | -22.99868 | 14.05161 | 5.248 | 283.6 |
| 2026-03-07T21:25 | -22.99960 | 14.05324 | 0.633 | 121.3 |
| 2026-03-07T21:35 | -22.99959 | 14.05319 | 0.016 | 281.4 |
| 2026-03-07T21:45 | -22.99961 | 14.05316 | 0.011 | 236.7 |
| 2026-03-07T21:55 | -22.99960 | 14.05316 | 0.003 | 21.6 |
| 2026-03-07T22:05 | -23.00035 | 14.04453 | 2.879 | 264.6 |
| 2026-03-07T22:15 | -23.00082 | 14.01473 | 9.893 | 269.0 |
| 2026-03-07T22:25 | -23.00090 | 13.98450 | 10.036 | 269.8 |
| 2026-03-07T22:35 | -23.00113 | 13.95309 | 10.426 | 269.5 |
| 2026-03-07T22:45 | -23.00057 | 13.92341 | 9.857 | 271.2 |
| 2026-03-07T22:55 | -22.99998 | 13.89366 | 9.876 | 271.2 |
| 2026-03-07T23:05 | -22.99871 | 13.86697 | 8.873 | 272.9 |
| 2026-03-07T23:15 | -22.99960 | 13.86618 | 0.412 | 219.3 |
| 2026-03-07T23:25 | -22.99961 | 13.86622 | 0.011 | 104.7 |
| 2026-03-07T23:35 | -22.99960 | 13.86620 | 0.005 | 292.6 |
| 2026-03-07T23:45 | -22.99961 | 13.86621 | 0.005 | 142.3 |
| 2026-03-07T23:55 | -23.00769 | 13.87034 | 3.203 | 154.7 |
| 2026-03-08T00:05 | -23.00698 | 13.84145 | 9.591 | 271.5 |
| 2026-03-08T00:15 | -23.00490 | 13.80966 | 10.581 | 274.0 |
| 2026-03-08T00:25 | -23.00294 | 13.77834 | 10.422 | 273.9 |
| 2026-03-08T00:35 | -23.00099 | 13.74784 | 10.148 | 273.9 |
| 2026-03-08T00:45 | -22.99919 | 13.71697 | 10.268 | 273.6 |
| 2026-03-08T00:55 | -22.99929 | 13.68667 | 10.057 | 269.8 |
| 2026-03-08T01:05 | -22.99964 | 13.68336 | 1.108 | 263.4 |
| 2026-03-08T01:15 | -22.99965 | 13.68332 | 0.012 | 264.7 |
| 2026-03-08T01:25 | -22.99963 | 13.68333 | 0.004 | 13.0 |
| 2026-03-08T01:35 | -22.99964 | 13.68332 | 0.003 | 238.3 |
| 2026-03-08T01:45 | -22.99963 | 13.68335 | 0.010 | 81.5 |
| 2026-03-08T01:55 | -22.99964 | 13.68335 | 0.002 | 204.8 |
| 2026-03-08T02:05 | -22.99963 | 13.68333 | 0.004 | 285.1 |
| 2026-03-08T02:15 | -22.99964 | 13.68335 | 0.005 | 120.2 |
| 2026-03-08T02:25 | -22.99964 | 13.68334 | 0.002 | 317.2 |
| 2026-03-08T02:35 | -22.99964 | 13.68336 | 0.007 | 90.0 |
| 2026-03-08T02:45 | -23.00007 | 13.68395 | 0.250 | 128.2 |
| 2026-03-08T02:55 | -23.00001 | 13.70838 | 8.109 | 89.9 |
| 2026-03-08T03:05 | -23.00008 | 13.73860 | 10.031 | 90.2 |
| 2026-03-08T03:15 | -23.00008 | 13.76853 | 9.937 | 90.0 |
| 2026-03-08T03:25 | -23.00019 | 13.79879 | 10.045 | 90.2 |
| 2026-03-08T03:35 | -23.00021 | 13.82900 | 10.028 | 90.0 |
| 2026-03-08T03:45 | -23.00026 | 13.85951 | 10.129 | 90.1 |
| 2026-03-08T03:55 | -23.00035 | 13.89016 | 10.175 | 90.2 |
| 2026-03-08T04:05 | -23.00044 | 13.92081 | 10.174 | 90.2 |
| 2026-03-08T04:15 | -23.00056 | 13.95184 | 10.301 | 90.2 |
| 2026-03-08T04:25 | -23.00034 | 13.98299 | 10.340 | 89.6 |
| 2026-03-08T04:35 | -22.99789 | 14.01430 | 10.430 | 85.2 |
| 2026-03-08T04:45 | -22.99544 | 14.04447 | 10.054 | 85.0 |
| 2026-03-08T04:55 | -22.99818 | 14.04970 | 1.995 | 119.5 |
| 2026-03-08T05:05 | -22.99819 | 14.04972 | 0.008 | 111.4 |
| 2026-03-08T05:15 | -22.99817 | 14.04973 | 0.006 | 42.8 |
| 2026-03-08T05:25 | -22.99819 | 14.04973 | 0.005 | 192.1 |
| 2026-03-08T05:35 | -22.99818 | 14.04974 | 0.004 | 36.5 |
| 2026-03-08T05:45 | -22.99819 | 14.04972 | 0.006 | 236.0 |
| 2026-03-08T05:55 | -22.99811 | 14.05010 | 0.128 | 77.1 |
| 2026-03-08T06:05 | -23.00108 | 14.05064 | 1.079 | 170.5 |
| 2026-03-08T06:15 | -23.00107 | 14.05073 | 0.030 | 89.3 |
| 2026-03-08T06:25 | -23.00170 | 14.05043 | 0.243 | 203.6 |
| 2026-03-08T06:35 | -23.01117 | 14.04802 | 3.489 | 193.2 |
| 2026-03-08T06:45 | -23.01929 | 14.04309 | 3.343 | 209.3 |
| 2026-03-08T06:55 | -23.02142 | 14.04052 | 1.143 | 228.1 |
| 2026-03-08T07:05 | -23.02144 | 14.04061 | 0.029 | 100.8 |
| 2026-03-08T07:15 | -23.02145 | 14.03976 | 0.282 | 268.9 |
| 2026-03-08T07:25 | -23.02235 | 14.03811 | 0.635 | 239.6 |
| 2026-03-08T07:35 | -23.02166 | 14.03953 | 0.532 | 62.2 |
| 2026-03-08T07:45 | -23.02263 | 14.04396 | 1.512 | 103.4 |
| 2026-03-08T07:55 | -23.00487 | 14.04996 | 6.673 | 17.4 |
| 2026-03-08T08:05 | -23.00142 | 14.04972 | 1.240 | 356.4 |
| 2026-03-08T08:15 | -23.00130 | 14.05058 | 0.287 | 81.5 |
| 2026-03-08T08:25 | -23.00123 | 14.05014 | 0.146 | 279.9 |
| 2026-03-08T08:35 | -23.00124 | 14.05014 | 0.003 | 218.4 |
| 2026-03-08T08:45 | -23.00123 | 14.05014 | 0.003 | 5.9 |
| 2026-03-08T08:55 | -23.00124 | 14.05015 | 0.007 | 135.1 |
| 2026-03-08T09:05 | -23.00123 | 14.05015 | 0.006 | 346.1 |
| 2026-03-08T09:15 | -22.99967 | 14.05017 | 0.559 | 0.8 |
| 2026-03-08T09:25 | -22.99852 | 14.05013 | 0.409 | 358.1 |
| 2026-03-08T09:35 | -22.99851 | 14.05016 | 0.011 | 64.9 |
| 2026-03-08T09:45 | -22.99851 | 14.05015 | 0.005 | 258.6 |
| 2026-03-08T09:55 | -22.99853 | 14.05015 | 0.005 | 171.9 |
| 2026-03-08T10:05 | -22.99853 | 14.05015 | 0.001 | 298.4 |
| 2026-03-08T10:15 | -22.99832 | 14.05020 | 0.077 | 13.7 |
| 2026-03-08T10:25 | -22.99748 | 14.05034 | 0.304 | 8.8 |
| 2026-03-08T10:35 | -22.99745 | 14.05025 | 0.031 | 288.8 |
| 2026-03-08T10:45 | -22.99904 | 14.04994 | 0.579 | 190.3 |
| 2026-03-08T10:55 | -23.00100 | 14.04953 | 0.716 | 191.0 |
| 2026-03-08T11:05 | -23.00120 | 14.05090 | 0.462 | 98.8 |
| 2026-03-08T11:15 | -23.00138 | 14.05205 | 0.387 | 99.5 |
| 2026-03-08T11:25 | -23.00846 | 14.04633 | 3.172 | 216.8 |
| 2026-03-08T11:35 | -23.01540 | 14.03855 | 3.586 | 226.1 |
| 2026-03-08T11:45 | -23.01553 | 14.03869 | 0.067 | 137.2 |
| 2026-03-08T11:55 | -23.01705 | 14.03838 | 0.553 | 190.5 |
| 2026-03-08T12:05 | -23.01968 | 14.03788 | 0.957 | 190.0 |
| 2026-03-08T12:15 | -23.02319 | 14.03722 | 1.279 | 189.8 |
| 2026-03-08T12:25 | -23.02847 | 14.03659 | 1.904 | 186.4 |
| 2026-03-08T12:35 | -23.03094 | 14.01618 | 6.830 | 262.5 |
| 2026-03-08T12:45 | -23.02903 | 13.99021 | 8.648 | 274.6 |
| 2026-03-08T12:55 | -23.02726 | 13.96406 | 8.702 | 274.2 |
| 2026-03-08T13:05 | -23.02536 | 13.93796 | 8.690 | 274.5 |
| 2026-03-08T13:15 | -23.02323 | 13.91183 | 8.705 | 275.0 |
| 2026-03-08T13:25 | -23.02065 | 13.88562 | 8.748 | 276.1 |
| 2026-03-08T13:35 | -23.01838 | 13.85954 | 8.698 | 275.4 |
| 2026-03-08T13:45 | -23.01599 | 13.83347 | 8.695 | 275.6 |
| 2026-03-08T13:55 | -23.01384 | 13.80726 | 8.734 | 275.1 |
| 2026-03-08T14:05 | -23.01235 | 13.78155 | 8.550 | 273.6 |
| 2026-03-08T14:15 | -23.01115 | 13.75532 | 8.717 | 272.8 |
| 2026-03-08T14:25 | -23.01005 | 13.72916 | 8.695 | 272.6 |
| 2026-03-08T14:35 | -23.00893 | 13.70320 | 8.624 | 272.7 |
| 2026-03-08T14:45 | -23.00782 | 13.67711 | 8.669 | 272.6 |
| 2026-03-08T14:55 | -23.00664 | 13.65162 | 8.472 | 272.9 |
| 2026-03-08T15:05 | -23.00557 | 13.62612 | 8.476 | 272.6 |
| 2026-03-08T15:15 | -23.00439 | 13.60049 | 8.516 | 272.8 |
| 2026-03-08T15:25 | -23.00326 | 13.57485 | 8.521 | 272.7 |
| 2026-03-08T15:35 | -23.00217 | 13.54914 | 8.543 | 272.6 |
| 2026-03-08T15:45 | -23.00056 | 13.52311 | 8.662 | 273.8 |
| 2026-03-08T15:55 | -22.99875 | 13.50082 | 7.428 | 275.0 |
| 2026-03-08T16:05 | -22.99984 | 13.50030 | 0.428 | 203.7 |
| 2026-03-08T16:15 | -22.99987 | 13.50030 | 0.011 | 180.0 |
| 2026-03-08T16:25 | -22.99986 | 13.50029 | 0.007 | 340.2 |
| 2026-03-08T16:35 | -22.99987 | 13.50033 | 0.014 | 120.3 |
| 2026-03-08T16:45 | -23.00690 | 13.48835 | 4.706 | 237.7 |
| 2026-03-08T16:55 | -23.00344 | 13.46042 | 9.354 | 277.6 |
| 2026-03-08T17:05 | -22.99998 | 13.43389 | 8.896 | 278.0 |
| 2026-03-08T17:15 | -22.99999 | 13.40811 | 8.558 | 270.0 |
| 2026-03-08T17:25 | -23.00003 | 13.38237 | 8.545 | 269.9 |
| 2026-03-08T17:35 | -23.00013 | 13.35651 | 8.581 | 269.8 |
| 2026-03-08T17:45 | -22.99932 | 13.33078 | 8.548 | 272.0 |
| 2026-03-08T17:55 | -22.99961 | 13.31691 | 4.605 | 268.7 |
| 2026-03-08T18:05 | -22.99965 | 13.31695 | 0.019 | 136.5 |
| 2026-03-08T18:15 | -22.99969 | 13.31699 | 0.019 | 141.7 |
| 2026-03-08T18:25 | -22.99970 | 13.31698 | 0.003 | 232.3 |
| 2026-03-08T18:35 | -22.99968 | 13.31699 | 0.008 | 17.9 |
| 2026-03-08T18:45 | -23.00573 | 13.31278 | 2.580 | 212.8 |
| 2026-03-08T18:55 | -23.00581 | 13.28553 | 9.046 | 269.8 |
| 2026-03-08T19:05 | -23.00570 | 13.26131 | 8.041 | 270.3 |
| 2026-03-08T19:15 | -23.00466 | 13.23702 | 8.072 | 272.7 |
| 2026-03-08T19:25 | -23.00358 | 13.21303 | 7.974 | 272.8 |
| 2026-03-08T19:35 | -23.00241 | 13.18900 | 7.989 | 273.0 |
| 2026-03-08T19:45 | -23.00139 | 13.16473 | 8.063 | 272.6 |
| 2026-03-08T19:55 | -23.00003 | 13.15016 | 4.860 | 275.8 |
| 2026-03-08T20:05 | -23.00006 | 13.15027 | 0.037 | 107.4 |
| 2026-03-08T20:15 | -23.00004 | 13.15025 | 0.013 | 320.6 |
| 2026-03-08T20:25 | -23.00006 | 13.15028 | 0.014 | 121.5 |
| 2026-03-08T20:35 | -23.00006 | 13.15028 | 0.000 | 0.0 |
| 2026-03-08T20:45 | -23.00360 | 13.14405 | 2.429 | 238.5 |
| 2026-03-08T20:55 | -23.00359 | 13.12162 | 7.446 | 270.0 |
| 2026-03-08T21:05 | -23.00317 | 13.09761 | 7.970 | 271.1 |
| 2026-03-08T21:15 | -23.00276 | 13.07318 | 8.113 | 271.1 |
| 2026-03-08T21:25 | -23.00245 | 13.04929 | 7.929 | 270.8 |
| 2026-03-08T21:35 | -23.00200 | 13.02567 | 7.842 | 271.2 |
| 2026-03-08T21:45 | -23.00218 | 13.00198 | 7.866 | 269.5 |
| 2026-03-08T21:55 | -23.00115 | 12.97832 | 7.861 | 272.7 |
| 2026-03-08T22:05 | -22.99926 | 12.95984 | 6.174 | 276.3 |
| 2026-03-08T22:15 | -22.99956 | 12.95033 | 3.158 | 268.1 |
| 2026-03-08T22:25 | -22.99959 | 12.95031 | 0.012 | 211.2 |
| 2026-03-08T22:35 | -22.99958 | 12.95033 | 0.007 | 77.8 |
| 2026-03-08T22:45 | -22.99960 | 12.95034 | 0.005 | 155.2 |
| 2026-03-08T22:55 | -22.99960 | 12.95036 | 0.007 | 93.1 |
| 2026-03-08T23:05 | -22.99958 | 12.95034 | 0.010 | 315.8 |
| 2026-03-08T23:15 | -22.99961 | 12.95039 | 0.020 | 124.7 |
| 2026-03-08T23:25 | -23.00153 | 12.94978 | 0.717 | 196.5 |
| 2026-03-08T23:35 | -23.00436 | 12.93119 | 6.253 | 260.7 |
| 2026-03-08T23:45 | -23.00354 | 12.90935 | 7.254 | 272.3 |
| 2026-03-08T23:55 | -23.00282 | 12.88827 | 7.002 | 272.1 |
| 2026-03-09T00:05 | -23.00183 | 12.86829 | 6.644 | 273.1 |
| 2026-03-09T00:15 | -23.00178 | 12.84831 | 6.631 | 270.1 |
| 2026-03-09T00:25 | -23.00135 | 12.82828 | 6.652 | 271.3 |
| 2026-03-09T00:35 | -23.00134 | 12.80909 | 6.371 | 270.0 |
| 2026-03-09T00:45 | -22.99944 | 12.78981 | 6.435 | 276.1 |
| 2026-03-09T00:55 | -22.99986 | 12.78339 | 2.136 | 266.0 |
| 2026-03-09T01:05 | -22.99989 | 12.78343 | 0.017 | 131.6 |
| 2026-03-09T01:15 | -22.99990 | 12.78342 | 0.005 | 225.5 |
| 2026-03-09T01:25 | -22.99991 | 12.78341 | 0.004 | 234.2 |
| 2026-03-09T01:35 | -22.99989 | 12.78343 | 0.009 | 36.5 |
| 2026-03-09T01:45 | -22.99990 | 12.78339 | 0.014 | 256.7 |
| 2026-03-09T01:55 | -22.99990 | 12.78340 | 0.004 | 104.0 |
| 2026-03-09T02:05 | -22.99998 | 12.78343 | 0.031 | 157.4 |
| 2026-03-09T02:15 | -23.01042 | 12.77956 | 3.958 | 198.9 |
| 2026-03-09T02:25 | -23.00934 | 12.75890 | 6.871 | 273.2 |
| 2026-03-09T02:35 | -23.00793 | 12.73722 | 7.214 | 274.0 |
| 2026-03-09T02:45 | -23.00654 | 12.71633 | 6.953 | 274.1 |
| 2026-03-09T02:55 | -23.00502 | 12.69475 | 7.184 | 274.4 |
| 2026-03-09T03:05 | -23.00368 | 12.67261 | 7.364 | 273.7 |
| 2026-03-09T03:15 | -23.00224 | 12.65042 | 7.386 | 274.0 |
| 2026-03-09T03:25 | -23.00089 | 12.62903 | 7.114 | 273.9 |
| 2026-03-09T03:35 | -22.99862 | 12.61010 | 6.338 | 277.4 |
| 2026-03-09T03:45 | -22.99700 | 12.59119 | 6.305 | 275.3 |
| 2026-03-09T03:55 | -22.99990 | 12.58324 | 2.836 | 248.5 |
| 2026-03-09T04:05 | -22.99993 | 12.58326 | 0.013 | 151.9 |
| 2026-03-09T04:15 | -22.99992 | 12.58325 | 0.005 | 300.2 |
| 2026-03-09T04:25 | -22.99992 | 12.58325 | 0.002 | 17.1 |
| 2026-03-09T04:35 | -22.99992 | 12.58325 | 0.003 | 149.9 |
| 2026-03-09T04:45 | -22.99992 | 12.58323 | 0.007 | 270.0 |
| 2026-03-09T04:55 | -22.99990 | 12.58324 | 0.007 | 13.7 |
| 2026-03-09T05:05 | -22.99992 | 12.58326 | 0.009 | 113.4 |
| 2026-03-09T05:15 | -22.99993 | 12.58325 | 0.007 | 231.0 |
| 2026-03-09T05:25 | -22.99992 | 12.58321 | 0.012 | 290.3 |
| 2026-03-09T05:35 | -23.00671 | 12.56709 | 5.881 | 245.5 |
| 2026-03-09T05:45 | -23.00530 | 12.53603 | 10.320 | 272.8 |
| 2026-03-09T05:55 | -23.00384 | 12.50570 | 10.084 | 273.0 |
| 2026-03-09T06:05 | -23.00242 | 12.47535 | 10.087 | 272.9 |
| 2026-03-09T06:15 | -23.00104 | 12.44672 | 9.516 | 273.0 |
| 2026-03-09T06:25 | -22.99939 | 12.41546 | 10.393 | 273.2 |
| 2026-03-09T06:35 | -22.99881 | 12.38524 | 10.036 | 271.2 |
| 2026-03-09T06:45 | -22.99832 | 12.35420 | 10.305 | 271.0 |
| 2026-03-09T06:55 | -22.99984 | 12.33314 | 7.012 | 265.5 |
| 2026-03-09T07:05 | -22.99984 | 12.33291 | 0.076 | 269.2 |
| 2026-03-09T07:15 | -22.99994 | 12.33352 | 0.207 | 99.6 |
| 2026-03-09T07:25 | -22.99994 | 12.33352 | 0.003 | 222.8 |
| 2026-03-09T07:35 | -22.99995 | 12.33352 | 0.002 | 162.8 |
| 2026-03-09T07:45 | -22.99994 | 12.33353 | 0.004 | 57.0 |
| 2026-03-09T07:55 | -22.99994 | 12.33349 | 0.013 | 276.3 |
| 2026-03-09T08:05 | -22.99993 | 12.33352 | 0.009 | 80.9 |
| 2026-03-09T08:15 | -22.99995 | 12.33351 | 0.008 | 192.4 |
| 2026-03-09T08:25 | -22.99995 | 12.33352 | 0.003 | 70.2 |
| 2026-03-09T08:35 | -22.99995 | 12.33353 | 0.002 | 129.0 |
| 2026-03-09T08:45 | -22.99995 | 12.33351 | 0.007 | 279.2 |
| 2026-03-09T08:55 | -22.99995 | 12.33352 | 0.003 | 56.0 |
| 2026-03-09T09:05 | -22.99994 | 12.33353 | 0.006 | 52.4 |
| 2026-03-09T09:15 | -22.99995 | 12.33349 | 0.012 | 255.7 |
| 2026-03-09T09:25 | -22.99995 | 12.33353 | 0.011 | 90.0 |
| 2026-03-09T09:35 | -22.99994 | 12.33350 | 0.010 | 276.0 |
| 2026-03-09T09:45 | -22.99995 | 12.33353 | 0.010 | 113.0 |
| 2026-03-09T09:55 | -22.99994 | 12.33351 | 0.007 | 313.4 |
| 2026-03-09T10:05 | -22.99994 | 12.33351 | 0.000 | 180.0 |
| 2026-03-09T10:15 | -23.00203 | 12.33124 | 1.063 | 225.1 |
| 2026-03-09T10:25 | -23.00406 | 12.32884 | 1.077 | 227.6 |
| 2026-03-09T10:35 | -23.00645 | 12.32635 | 1.192 | 223.9 |
| 2026-03-09T10:45 | -23.00921 | 12.32422 | 1.217 | 215.7 |
| 2026-03-09T10:55 | -23.01195 | 12.32229 | 1.174 | 213.1 |
| 2026-03-09T11:05 | -23.01461 | 12.32066 | 1.094 | 209.6 |
| 2026-03-09T11:15 | -23.01734 | 12.31923 | 1.090 | 205.8 |
| 2026-03-09T11:25 | -23.02021 | 12.31752 | 1.172 | 208.8 |
| 2026-03-09T11:35 | -23.02858 | 12.33165 | 5.569 | 122.6 |
| 2026-03-09T11:45 | -23.02501 | 12.36297 | 10.473 | 83.0 |
| 2026-03-09T11:55 | -23.02157 | 12.39377 | 10.295 | 83.1 |
| 2026-03-09T12:05 | -23.01804 | 12.42420 | 10.182 | 82.9 |
| 2026-03-09T12:15 | -23.01465 | 12.45459 | 10.161 | 83.1 |
| 2026-03-09T12:25 | -23.01101 | 12.48551 | 10.344 | 82.8 |
| 2026-03-09T12:35 | -23.00745 | 12.51675 | 10.450 | 83.0 |
| 2026-03-09T12:45 | -23.00395 | 12.54814 | 10.493 | 83.2 |
| 2026-03-09T12:55 | -23.00023 | 12.57929 | 10.429 | 82.7 |
| 2026-03-09T13:05 | -23.00070 | 12.58269 | 1.141 | 98.4 |
| 2026-03-09T13:15 | -23.00316 | 12.58297 | 0.885 | 174.0 |
| 2026-03-09T13:25 | -23.00542 | 12.58429 | 0.924 | 151.6 |
| 2026-03-09T13:35 | -23.00804 | 12.58532 | 0.998 | 160.1 |
| 2026-03-09T13:45 | -23.01021 | 12.58642 | 0.859 | 154.9 |
| 2026-03-09T13:55 | -23.01292 | 12.58705 | 0.994 | 167.7 |
| 2026-03-09T14:05 | -23.01913 | 12.58672 | 2.231 | 182.9 |
| 2026-03-09T14:15 | -23.02053 | 12.61161 | 8.277 | 93.5 |
| 2026-03-09T14:25 | -23.01604 | 12.64271 | 10.447 | 81.1 |
| 2026-03-09T14:35 | -23.01149 | 12.67325 | 10.269 | 80.9 |
| 2026-03-09T14:45 | -23.00718 | 12.70309 | 10.026 | 81.1 |
| 2026-03-09T14:55 | -23.00286 | 12.73246 | 9.871 | 81.0 |
| 2026-03-09T15:05 | -22.99873 | 12.76305 | 10.260 | 81.7 |
| 2026-03-09T15:15 | -22.99916 | 12.78317 | 6.681 | 91.3 |
| 2026-03-09T15:25 | -22.99926 | 12.78323 | 0.042 | 151.0 |
| 2026-03-09T15:35 | -22.99926 | 12.78323 | 0.001 | 61.6 |
| 2026-03-09T15:45 | -22.99926 | 12.78321 | 0.005 | 270.0 |
| 2026-03-09T15:55 | -22.99926 | 12.78322 | 0.003 | 121.7 |
| 2026-03-09T16:05 | -22.99925 | 12.78320 | 0.009 | 305.2 |
| 2026-03-09T16:15 | -22.99925 | 12.78321 | 0.005 | 85.9 |
| 2026-03-09T16:25 | -23.00177 | 12.78247 | 0.938 | 195.2 |
| 2026-03-09T16:35 | -23.00543 | 12.78142 | 1.356 | 194.9 |
| 2026-03-09T16:45 | -23.00909 | 12.78036 | 1.361 | 194.9 |
| 2026-03-09T16:55 | -23.01276 | 12.77933 | 1.360 | 194.7 |
| 2026-03-09T17:05 | -23.01642 | 12.77827 | 1.358 | 195.0 |
| 2026-03-09T17:15 | -23.01998 | 12.77707 | 1.338 | 197.3 |
| 2026-03-09T17:25 | -23.02253 | 12.77610 | 0.967 | 199.5 |
| 2026-03-09T17:35 | -23.02508 | 12.77506 | 0.978 | 200.6 |
| 2026-03-09T17:45 | -23.02759 | 12.77400 | 0.968 | 201.4 |
| 2026-03-09T17:55 | -23.03162 | 12.77296 | 1.485 | 193.4 |
| 2026-03-09T18:05 | -23.02949 | 12.79056 | 5.890 | 82.5 |
| 2026-03-09T18:15 | -23.01900 | 12.81876 | 10.087 | 68.1 |
| 2026-03-09T18:25 | -23.00820 | 12.84787 | 10.410 | 68.2 |
| 2026-03-09T18:35 | -22.99805 | 12.87015 | 8.244 | 63.8 |
| 2026-03-09T18:45 | -22.99995 | 12.87436 | 1.555 | 116.0 |
| 2026-03-09T18:55 | -23.00249 | 12.87359 | 0.945 | 195.7 |
| 2026-03-09T19:05 | -23.00510 | 12.87279 | 0.973 | 195.8 |
| 2026-03-09T19:15 | -23.00771 | 12.87200 | 0.972 | 195.6 |
| 2026-03-09T19:25 | -23.01030 | 12.87119 | 0.967 | 196.1 |
| 2026-03-09T19:35 | -23.01291 | 12.87039 | 0.976 | 195.9 |
| 2026-03-09T19:45 | -23.01552 | 12.86960 | 0.971 | 195.6 |
| 2026-03-09T19:55 | -23.02113 | 12.87102 | 2.064 | 166.8 |
| 2026-03-09T20:05 | -23.01442 | 12.89454 | 8.169 | 72.9 |
| 2026-03-09T20:15 | -23.00597 | 12.92088 | 9.252 | 70.9 |
| 2026-03-09T20:25 | -22.99740 | 12.94689 | 9.165 | 70.4 |
| 2026-03-09T20:35 | -22.99975 | 12.94924 | 1.149 | 137.1 |
| 2026-03-09T20:45 | -23.00091 | 12.94810 | 0.563 | 222.5 |
| 2026-03-09T20:55 | -23.00287 | 12.94772 | 0.715 | 190.2 |
| 2026-03-09T21:05 | -23.00517 | 12.94762 | 0.826 | 182.2 |
| 2026-03-09T21:15 | -23.00788 | 12.94755 | 0.970 | 181.3 |
| 2026-03-09T21:25 | -23.01077 | 12.94755 | 1.039 | 180.0 |
| 2026-03-09T21:35 | -23.01414 | 12.94733 | 1.210 | 183.6 |
| 2026-03-09T21:45 | -23.01660 | 12.95493 | 2.674 | 109.3 |
| 2026-03-09T21:55 | -23.01161 | 12.98105 | 8.852 | 78.3 |
| 2026-03-09T22:05 | -23.00623 | 13.00869 | 9.377 | 78.1 |
| 2026-03-09T22:15 | -23.00114 | 13.03673 | 9.486 | 78.9 |
| 2026-03-09T22:25 | -22.99949 | 13.05139 | 4.902 | 83.1 |
| 2026-03-09T22:35 | -23.00190 | 13.05280 | 0.985 | 151.6 |
| 2026-03-09T22:45 | -23.00347 | 13.05419 | 0.727 | 140.7 |
| 2026-03-09T22:55 | -23.00570 | 13.05543 | 0.900 | 152.8 |
| 2026-03-09T23:05 | -23.00813 | 13.05640 | 0.929 | 159.7 |
| 2026-03-09T23:15 | -23.01069 | 13.05759 | 0.998 | 156.6 |
| 2026-03-09T23:25 | -23.01860 | 13.06126 | 3.088 | 156.8 |
| 2026-03-09T23:35 | -23.01424 | 13.08669 | 8.585 | 79.5 |
| 2026-03-09T23:45 | -23.00718 | 13.11261 | 8.967 | 73.6 |
| 2026-03-09T23:55 | -23.00113 | 13.13866 | 8.918 | 75.9 |
| 2026-03-10T00:05 | -22.99948 | 13.14994 | 3.788 | 81.0 |
| 2026-03-10T00:15 | -23.00085 | 13.15014 | 0.495 | 172.1 |
| 2026-03-10T00:25 | -23.00294 | 13.15021 | 0.751 | 178.2 |
| 2026-03-10T00:35 | -23.00522 | 13.15006 | 0.819 | 183.5 |
| 2026-03-10T00:45 | -23.00756 | 13.15035 | 0.845 | 173.4 |
| 2026-03-10T00:55 | -23.01018 | 13.15074 | 0.948 | 172.2 |
| 2026-03-10T01:05 | -23.01332 | 13.15090 | 1.126 | 177.4 |
| 2026-03-10T01:15 | -23.01888 | 13.17025 | 6.727 | 107.3 |
| 2026-03-10T01:25 | -23.01455 | 13.20032 | 10.102 | 81.2 |
| 2026-03-10T01:35 | -23.01018 | 13.22996 | 9.962 | 81.0 |
| 2026-03-10T01:45 | -23.00578 | 13.25944 | 9.910 | 80.9 |
| 2026-03-10T01:55 | -23.00142 | 13.28977 | 10.191 | 81.2 |
| 2026-03-10T02:05 | -22.99882 | 13.31532 | 8.533 | 83.7 |
| 2026-03-10T02:15 | -23.00156 | 13.31487 | 0.996 | 188.7 |
| 2026-03-10T02:25 | -23.00410 | 13.31381 | 0.976 | 201.0 |
| 2026-03-10T02:35 | -23.00661 | 13.31274 | 0.966 | 201.6 |
| 2026-03-10T02:45 | -23.00914 | 13.31166 | 0.978 | 201.7 |
| 2026-03-10T02:55 | -23.01166 | 13.31058 | 0.970 | 201.6 |
| 2026-03-10T03:05 | -23.01418 | 13.30951 | 0.972 | 201.3 |
| 2026-03-10T03:15 | -23.01667 | 13.30843 | 0.962 | 202.0 |
| 2026-03-10T03:25 | -23.02569 | 13.30809 | 3.235 | 182.0 |
| 2026-03-10T03:35 | -23.02490 | 13.33446 | 8.758 | 88.2 |
| 2026-03-10T03:45 | -23.01952 | 13.36444 | 10.135 | 79.0 |
| 2026-03-10T03:55 | -23.01434 | 13.39422 | 10.059 | 79.4 |
| 2026-03-10T04:05 | -23.00903 | 13.42404 | 10.081 | 79.1 |
| 2026-03-10T04:15 | -23.00394 | 13.45433 | 10.220 | 79.7 |
| 2026-03-10T04:25 | -22.99935 | 13.48224 | 9.409 | 79.9 |
| 2026-03-10T04:35 | -22.99864 | 13.49858 | 5.430 | 87.3 |
| 2026-03-10T04:45 | -23.00053 | 13.49792 | 0.709 | 197.9 |
| 2026-03-10T04:55 | -23.00310 | 13.49694 | 0.977 | 199.5 |
| 2026-03-10T05:05 | -23.00566 | 13.49601 | 0.969 | 198.6 |
| 2026-03-10T05:15 | -23.00821 | 13.49500 | 0.973 | 200.0 |
| 2026-03-10T05:25 | -23.01116 | 13.49394 | 1.115 | 198.4 |
| 2026-03-10T05:35 | -23.02069 | 13.50731 | 5.602 | 127.6 |
| 2026-03-10T05:45 | -23.01655 | 13.53710 | 9.998 | 81.5 |
| 2026-03-10T05:55 | -23.01230 | 13.56574 | 9.628 | 80.9 |
| 2026-03-10T06:05 | -23.00814 | 13.59386 | 9.452 | 80.9 |
| 2026-03-10T06:15 | -23.00401 | 13.62242 | 9.594 | 81.1 |
| 2026-03-10T06:25 | -23.00081 | 13.65016 | 9.282 | 82.9 |
| 2026-03-10T06:35 | -22.99954 | 13.67771 | 9.157 | 87.2 |
| 2026-03-10T06:45 | -23.00172 | 13.68379 | 2.165 | 111.1 |
| 2026-03-10T06:55 | -23.00491 | 13.68239 | 1.235 | 202.1 |
| 2026-03-10T07:05 | -23.00798 | 13.68155 | 1.136 | 194.3 |
| 2026-03-10T07:15 | -23.01088 | 13.68099 | 1.058 | 190.1 |
| 2026-03-10T07:25 | -23.01372 | 13.68010 | 1.059 | 196.3 |
| 2026-03-10T07:35 | -23.01889 | 13.68035 | 1.856 | 177.4 |
| 2026-03-10T07:45 | -23.01675 | 13.70249 | 7.389 | 84.0 |
| 2026-03-10T07:55 | -23.01320 | 13.73225 | 9.959 | 82.7 |
| 2026-03-10T08:05 | -23.00976 | 13.76132 | 9.731 | 82.7 |
| 2026-03-10T08:15 | -23.00609 | 13.79036 | 9.728 | 82.2 |
| 2026-03-10T08:25 | -23.00254 | 13.81940 | 9.722 | 82.5 |
| 2026-03-10T08:35 | -22.99925 | 13.84865 | 9.784 | 83.1 |
| 2026-03-10T08:45 | -22.99940 | 13.86635 | 5.875 | 90.5 |
| 2026-03-10T08:55 | -23.00281 | 13.86613 | 1.224 | 183.5 |
| 2026-03-10T09:05 | -23.00577 | 13.86698 | 1.099 | 165.0 |
| 2026-03-10T09:15 | -23.00872 | 13.86792 | 1.104 | 163.7 |
| 2026-03-10T09:25 | -23.01211 | 13.86865 | 1.240 | 168.7 |
| 2026-03-10T09:35 | -23.01562 | 13.86930 | 1.274 | 170.3 |
| 2026-03-10T09:45 | -23.02053 | 13.87147 | 1.904 | 157.8 |
| 2026-03-10T09:55 | -23.01322 | 13.89702 | 8.875 | 72.8 |
| 2026-03-10T10:05 | -23.00490 | 13.92519 | 9.816 | 72.3 |
| 2026-03-10T10:15 | -23.00132 | 13.95442 | 9.787 | 82.5 |
| 2026-03-10T10:25 | -22.99997 | 13.98414 | 9.879 | 87.2 |
| 2026-03-10T10:35 | -22.99911 | 14.01328 | 9.679 | 88.2 |
| 2026-03-10T10:45 | -23.00179 | 14.01599 | 1.314 | 136.9 |
| 2026-03-10T10:55 | -23.00488 | 14.01619 | 1.109 | 176.6 |
| 2026-03-10T11:05 | -23.00837 | 14.01641 | 1.255 | 176.6 |
| 2026-03-10T11:15 | -23.01084 | 14.01716 | 0.921 | 164.2 |
| 2026-03-10T11:25 | -23.01329 | 14.01793 | 0.913 | 163.8 |
| 2026-03-10T11:35 | -23.02497 | 14.02667 | 5.097 | 145.3 |
| 2026-03-10T11:45 | -23.01674 | 14.05617 | 10.224 | 73.2 |
| 2026-03-10T11:55 | -23.00851 | 14.08592 | 10.307 | 73.4 |
| 2026-03-10T12:05 | -23.00197 | 14.11636 | 10.373 | 77.0 |
| 2026-03-10T12:15 | -22.99965 | 14.13408 | 5.941 | 82.0 |
| 2026-03-10T12:25 | -23.00233 | 14.13641 | 1.234 | 141.1 |
| 2026-03-10T12:35 | -23.00390 | 14.14013 | 1.357 | 114.6 |
| 2026-03-10T12:45 | -23.00507 | 14.14396 | 1.336 | 108.2 |
| 2026-03-10T12:55 | -23.00643 | 14.14811 | 1.462 | 109.5 |
| 2026-03-10T13:05 | -23.00743 | 14.17027 | 7.364 | 92.8 |
| 2026-03-10T13:15 | -23.00394 | 14.19912 | 9.659 | 82.6 |
| 2026-03-10T13:25 | -23.00238 | 14.22832 | 9.709 | 86.7 |
| 2026-03-10T13:35 | -23.00121 | 14.25914 | 10.242 | 87.7 |
| 2026-03-10T13:45 | -23.00025 | 14.28782 | 9.527 | 87.9 |
| 2026-03-10T13:55 | -23.00016 | 14.30613 | 6.079 | 89.7 |
| 2026-03-10T14:05 | -23.00190 | 14.31666 | 3.549 | 100.1 |
| 2026-03-10T14:15 | -23.00329 | 14.31562 | 0.609 | 214.6 |
| 2026-03-10T14:25 | -23.00546 | 14.31383 | 0.977 | 217.3 |
| 2026-03-10T14:35 | -23.00761 | 14.31206 | 0.971 | 217.3 |
| 2026-03-10T14:45 | -23.01053 | 14.30841 | 1.602 | 229.2 |
| 2026-03-10T14:55 | -23.01414 | 14.28997 | 6.253 | 258.1 |
| 2026-03-10T15:05 | -23.01034 | 14.26596 | 8.085 | 279.7 |
| 2026-03-10T15:15 | -23.00657 | 14.24204 | 8.057 | 279.7 |
| 2026-03-10T15:25 | -23.00278 | 14.21774 | 8.180 | 279.6 |
| 2026-03-10T15:35 | -22.99923 | 14.19410 | 7.949 | 279.2 |
| 2026-03-10T15:45 | -22.99716 | 14.17237 | 7.253 | 275.9 |
| 2026-03-10T15:55 | -22.99980 | 14.17201 | 0.954 | 187.2 |
| 2026-03-10T16:05 | -22.99980 | 14.17201 | 0.002 | 90.0 |
| 2026-03-10T16:15 | -22.99981 | 14.17201 | 0.003 | 174.1 |
| 2026-03-10T16:25 | -22.99981 | 14.17202 | 0.001 | 105.1 |
| 2026-03-10T16:35 | -22.99979 | 14.17202 | 0.007 | 0.0 |
| 2026-03-10T16:45 | -22.99980 | 14.17201 | 0.003 | 204.8 |
| 2026-03-10T16:55 | -22.99980 | 14.17201 | 0.002 | 246.6 |
| 2026-03-10T17:05 | -22.99979 | 14.17200 | 0.003 | 312.8 |
| 2026-03-10T17:15 | -22.99980 | 14.17201 | 0.005 | 132.0 |
| 2026-03-10T17:25 | -22.99980 | 14.17201 | 0.001 | 305.8 |
| 2026-03-10T17:35 | -22.99980 | 14.17202 | 0.005 | 77.8 |
| 2026-03-10T17:45 | -22.99979 | 14.17201 | 0.005 | 322.4 |
| 2026-03-10T17:55 | -22.99978 | 14.17202 | 0.002 | 51.0 |
| 2026-03-10T18:05 | -22.99978 | 14.17200 | 0.004 | 284.0 |
| 2026-03-10T18:15 | -22.99989 | 14.17211 | 0.053 | 140.6 |
| 2026-03-10T18:25 | -22.99988 | 14.17210 | 0.004 | 323.5 |
| 2026-03-10T18:35 | -22.99988 | 14.17208 | 0.005 | 300.2 |
| 2026-03-10T18:45 | -22.99987 | 14.17210 | 0.007 | 80.8 |
| 2026-03-10T18:55 | -22.99987 | 14.17211 | 0.003 | 83.8 |
| 2026-03-10T19:05 | -22.99988 | 14.17208 | 0.011 | 251.3 |
| 2026-03-10T19:15 | -22.99987 | 14.17209 | 0.004 | 49.2 |
| 2026-03-10T19:25 | -22.99987 | 14.17210 | 0.001 | 54.2 |
| 2026-03-10T19:35 | -22.99988 | 14.17210 | 0.002 | 129.0 |
| 2026-03-10T19:45 | -22.99988 | 14.17210 | 0.002 | 90.0 |
| 2026-03-10T19:55 | -22.99987 | 14.17209 | 0.004 | 289.8 |
| 2026-03-10T20:05 | -22.99988 | 14.17207 | 0.007 | 258.9 |
| 2026-03-10T20:15 | -22.99988 | 14.17210 | 0.009 | 104.0 |
| 2026-03-10T20:25 | -22.99987 | 14.17209 | 0.003 | 347.0 |
| 2026-03-10T20:35 | -22.99988 | 14.17210 | 0.001 | 137.2 |
| 2026-03-10T20:45 | -22.99987 | 14.17210 | 0.002 | 10.5 |
| 2026-03-10T20:55 | -22.99987 | 14.17210 | 0.001 | 54.2 |
| 2026-03-10T21:05 | -22.99987 | 14.17210 | 0.000 | 317.2 |
| 2026-03-10T21:15 | -22.99987 | 14.17210 | 0.002 | 229.2 |
| 2026-03-10T21:25 | -22.99987 | 14.17209 | 0.000 | 270.0 |
| 2026-03-10T21:35 | -22.99988 | 14.17209 | 0.001 | 197.2 |
| 2026-03-10T21:45 | -22.99987 | 14.17210 | 0.002 | 42.8 |
| 2026-03-10T21:55 | -22.99987 | 14.17209 | 0.003 | 245.2 |
| 2026-03-10T22:05 | -22.99987 | 14.17210 | 0.002 | 77.8 |
| 2026-03-10T22:15 | -22.99987 | 14.17209 | 0.002 | 261.2 |
| 2026-03-10T22:25 | -22.99987 | 14.17210 | 0.005 | 94.4 |
| 2026-03-10T22:35 | -22.99988 | 14.17210 | 0.002 | 250.2 |
| 2026-03-10T22:45 | -22.99988 | 14.17209 | 0.002 | 257.8 |
| 2026-03-10T22:55 | -22.99987 | 14.17211 | 0.005 | 63.5 |
| 2026-03-10T23:05 | -22.99988 | 14.17209 | 0.006 | 256.5 |
| 2026-03-10T23:15 | -22.99988 | 14.17210 | 0.003 | 109.8 |
| 2026-03-10T23:25 | -22.99987 | 14.17210 | 0.002 | 34.8 |
| 2026-03-10T23:35 | -22.99988 | 14.17209 | 0.003 | 241.6 |
| 2026-03-10T23:45 | -22.99987 | 14.17211 | 0.006 | 71.3 |
| 2026-03-10T23:55 | -22.99988 | 14.17209 | 0.006 | 259.2 |
| 2026-03-11T00:05 | -22.99988 | 14.17209 | 0.001 | 180.0 |
| 2026-03-11T00:15 | -22.99988 | 14.17210 | 0.002 | 90.0 |
| 2026-03-11T00:25 | -22.99988 | 14.17211 | 0.004 | 90.0 |
| 2026-03-11T00:35 | -22.99987 | 14.17210 | 0.005 | 287.1 |
| 2026-03-11T00:45 | -22.99987 | 14.17210 | 0.002 | 57.0 |
| 2026-03-11T00:55 | -22.99986 | 14.17209 | 0.005 | 312.0 |
| 2026-03-11T01:05 | -22.99987 | 14.17209 | 0.004 | 170.4 |
| 2026-03-11T01:15 | -22.99987 | 14.17209 | 0.001 | 155.2 |
| 2026-03-11T01:25 | -22.99988 | 14.17209 | 0.001 | 180.0 |
| 2026-03-11T01:35 | -22.99987 | 14.17210 | 0.003 | 37.6 |
| 2026-03-11T01:45 | -22.99987 | 14.17209 | 0.003 | 250.2 |
| 2026-03-11T01:55 | -22.99988 | 14.17209 | 0.003 | 132.0 |
| 2026-03-11T02:05 | -22.99988 | 14.17208 | 0.005 | 270.0 |
| 2026-03-11T02:15 | -22.99988 | 14.17210 | 0.007 | 107.2 |
| 2026-03-11T02:25 | -22.99988 | 14.17209 | 0.004 | 328.3 |
| 2026-03-11T02:35 | -22.99988 | 14.17209 | 0.002 | 216.5 |
| 2026-03-11T02:45 | -22.99988 | 14.17209 | 0.002 | 34.8 |
| 2026-03-11T02:55 | -22.99987 | 14.17210 | 0.002 | 24.8 |
| 2026-03-11T03:05 | -22.99987 | 14.17209 | 0.001 | 222.8 |
| 2026-03-11T03:15 | -22.99988 | 14.17209 | 0.002 | 214.8 |
| 2026-03-11T03:25 | -22.99988 | 14.17210 | 0.004 | 90.0 |
| 2026-03-11T03:35 | -23.00020 | 14.16971 | 0.804 | 261.6 |
| 2026-03-11T03:45 | -22.98856 | 14.18272 | 6.009 | 46.0 |
| 2026-03-11T03:55 | -22.97308 | 14.20565 | 9.422 | 53.9 |
| 2026-03-11T04:05 | -22.95742 | 14.22790 | 9.280 | 52.8 |
| 2026-03-11T04:15 | -22.94184 | 14.25001 | 9.226 | 52.7 |
| 2026-03-11T04:25 | -22.92616 | 14.27219 | 9.265 | 52.7 |
| 2026-03-11T04:35 | -22.91034 | 14.29464 | 9.371 | 52.7 |
| 2026-03-11T04:45 | -22.89403 | 14.31575 | 9.133 | 50.2 |
| 2026-03-11T04:55 | -22.87745 | 14.33663 | 9.136 | 49.4 |
| 2026-03-11T05:05 | -22.86123 | 14.35710 | 8.950 | 49.5 |
| 2026-03-11T05:15 | -22.84681 | 14.37828 | 8.734 | 53.7 |
| 2026-03-11T05:25 | -22.84772 | 14.40485 | 8.838 | 92.1 |
| 2026-03-11T05:35 | -22.85153 | 14.43271 | 9.357 | 98.4 |
| 2026-03-11T05:45 | -22.85727 | 14.46086 | 9.579 | 102.4 |
| 2026-03-11T05:55 | -22.87178 | 14.48586 | 9.802 | 122.1 |
| 2026-03-11T06:05 | -22.89193 | 14.49420 | 7.736 | 159.0 |
| 2026-03-11T06:15 | -22.90205 | 14.49409 | 3.630 | 180.6 |
| 2026-03-11T06:25 | -22.90353 | 14.49398 | 0.533 | 184.2 |
| 2026-03-11T06:35 | -22.90353 | 14.49398 | 0.002 | 0.0 |
| 2026-03-11T06:45 | -22.90353 | 14.49398 | 0.001 | 148.3 |
| 2026-03-11T06:55 | -22.90353 | 14.49398 | 0.001 | 335.1 |
| 2026-03-11T07:05 | -22.90354 | 14.49398 | 0.002 | 155.2 |
| 2026-03-11T07:15 | -22.90353 | 14.49398 | 0.001 | 42.8 |
| 2026-03-11T07:25 | -22.90353 | 14.49398 | 0.000 | 317.2 |
| 2026-03-11T07:35 | -22.90354 | 14.49398 | 0.001 | 137.2 |
| 2026-03-11T07:45 | -22.90353 | 14.49398 | 0.004 | 317.2 |
| 2026-03-11T07:55 | -22.90353 | 14.49397 | 0.003 | 263.2 |
| 2026-03-11T07:59 | -22.90353 | 14.49397 | 0.001 | 42.8 |
